Time;durP1;ratioP1;P1;durP2;ratioP2;P2;SDS_P1;SDS_P2;PMS_P1;PMS_P2;Temp;Humidity;BMP_temperature;BMP_pressure;BME280_temperature;BME280_humidity;BME280_pressure;Samples;Min_cycle;Max_cycle;Signal;HPM_P1;HPM_P2
2022/12/18 01:00:20;;;;;;;72.03;49.83;;;;;;;;;;5118692;27;20520;-73
2022/12/18 01:02:46;;;;;;;62.60;45.50;;;;;;;;;;5122685;27;20512;-73
2022/12/18 01:05:11;;;;;;;70.60;33.73;;;;;;;;;;5124208;27;20218;-73
2022/12/18 01:07:37;;;;;;;67.30;34.33;;;;;;;;;;5107482;27;20207;-73
2022/12/18 01:10:02;;;;;;;77.90;35.20;;;;;;;;;;5103648;28;20754;-73
2022/12/18 01:12:27;;;;;;;78.10;33.30;;;;;;;;;;5121060;27;20267;-74
2022/12/18 01:14:53;;;;;;;80.07;36.37;;;;;;;;;;5101929;27;20196;-74
2022/12/18 01:17:18;;;;;;;83.90;38.00;;;;;;;;;;5118641;27;20626;-74
2022/12/18 01:19:43;;;;;;;80.13;36.73;;;;;;;;;;5099191;27;20198;-74
2022/12/18 01:22:08;;;;;;;75.93;34.60;;;;;;;;;;5114437;27;20177;-74
2022/12/18 01:24:34;;;;;;;82.03;35.90;;;;;;;;;;5117987;27;20170;-73
2022/12/18 01:26:59;;;;;;;80.63;35.43;;;;;;;;;;5122295;27;20584;-74
2022/12/18 01:29:24;;;;;;;88.13;35.30;;;;;;;;;;5110333;27;20295;-73
2022/12/18 01:31:50;;;;;;;83.03;37.00;;;;;;;;;;5096991;27;20721;-74
2022/12/18 01:34:15;;;;;;;79.30;36.50;;;;;;;;;;5112408;27;20170;-74
2022/12/18 01:36:40;;;;;;;80.13;36.17;;;;;;;;;;5120243;27;20718;-74
2022/12/18 01:39:07;;;;;;;79.50;35.37;;;;;;;;;;5104930;27;20208;-73
2022/12/18 01:44:35;;;;;;;78.15;32.60;;;;;;;;;;5111930;27;20192;-74
2022/12/18 01:47:00;;;;;;;74.28;33.95;;;;;;;;;;5111507;27;20216;-73
2022/12/18 01:49:26;;;;;;;79.70;34.37;;;;;;;;;;5114384;27;20233;-73
2022/12/18 01:51:51;;;;;;;73.33;33.03;;;;;;;;;;5098009;28;20729;-74
2022/12/18 01:54:17;;;;;;;86.83;35.87;;;;;;;;;;5118286;27;20165;-73
2022/12/18 01:56:42;;;;;;;86.10;36.20;;;;;;;;;;5120243;27;20192;-74
2022/12/18 01:59:09;;;;;;;82.57;35.50;;;;;;;;;;5107665;27;20551;-74
2022/12/18 02:01:35;;;;;;;85.00;35.40;;;;;;;;;;5114283;27;20182;-73
2022/12/18 02:04:33;;;;;;;87.33;35.17;;;;;;;;;;5097306;28;20521;-74
2022/12/18 02:07:20;;;;;;;73.13;35.43;;;;;;;;;;5062635;27;20447;-73
2022/12/18 02:09:48;;;;;;;77.63;35.07;;;;;;;;;;5096487;28;20472;-74
2022/12/18 02:12:18;;;;;;;88.03;35.50;;;;;;;;;;5102271;28;20424;-74
2022/12/18 02:14:53;;;;;;;85.20;34.87;;;;;;;;;;5107173;27;20488;-73
2022/12/18 02:17:22;;;;;;;81.77;37.97;;;;;;;;;;5105774;27;20424;-74
2022/12/18 02:19:59;;;;;;;80.00;33.87;;;;;;;;;;5086233;28;20450;-73
2022/12/18 02:22:34;;;;;;;78.37;34.33;;;;;;;;;;5102461;27;20428;-74
2022/12/18 02:25:05;;;;;;;79.40;36.63;;;;;;;;;;5089594;28;20446;-74
2022/12/18 02:27:32;;;;;;;86.90;36.07;;;;;;;;;;5083968;28;20445;-73
2022/12/18 02:29:59;;;;;;;78.60;34.43;;;;;;;;;;5100698;28;20462;-73
2022/12/18 02:32:26;;;;;;;79.53;35.70;;;;;;;;;;5100528;27;20427;-73
2022/12/18 02:34:54;;;;;;;92.57;35.10;;;;;;;;;;5087867;27;20460;-73
2022/12/18 02:37:19;;;;;;;87.57;36.00;;;;;;;;;;5086990;27;20420;-74
2022/12/18 02:39:46;;;;;;;76.57;34.53;;;;;;;;;;5087830;28;21133;-74
2022/12/18 02:42:11;;;;;;;88.40;37.07;;;;;;;;;;5106002;27;20193;-74
2022/12/18 02:44:44;;;;;;;78.30;35.20;;;;;;;;;;5097797;27;20803;-73
2022/12/18 02:47:12;;;;;;;87.83;33.27;;;;;;;;;;5101596;27;20181;-73
2022/12/18 02:49:50;;;;;;;86.50;33.70;;;;;;;;;;5084989;27;20474;-73
2022/12/18 02:52:30;;;;;;;80.17;34.90;;;;;;;;;;5079036;28;20424;-74
2022/12/18 02:55:08;;;;;;;88.87;37.97;;;;;;;;;;5096826;28;20510;-74
2022/12/18 03:04:15;;;;;;;96.27;37.30;;;;;;;;;;5096909;27;21076;-73
2022/12/18 03:06:43;;;;;;;81.27;34.20;;;;;;;;;;5085093;28;20451;-74
2022/12/18 03:09:10;;;;;;;82.53;36.53;;;;;;;;;;5078623;28;20456;-74
2022/12/18 03:14:23;;;;;;;68.30;34.53;;;;;;;;;;5092057;28;20430;-73
2022/12/18 03:16:53;;;;;;;80.47;33.80;;;;;;;;;;5074844;28;20736;-73
2022/12/18 03:19:19;;;;;;;67.33;32.17;;;;;;;;;;5080470;28;20455;-74
2022/12/18 03:21:47;;;;;;;74.43;33.27;;;;;;;;;;5079344;28;20419;-74
2022/12/18 03:24:13;;;;;;;84.23;35.47;;;;;;;;;;5083690;28;20431;-74
2022/12/18 03:26:40;;;;;;;70.37;32.93;;;;;;;;;;5074402;28;20436;-73
2022/12/18 03:29:27;;;;;;;79.70;35.67;;;;;;;;;;5090201;28;20452;-73
2022/12/18 03:31:58;;;;;;;71.50;33.90;;;;;;;;;;5070195;28;20461;-73
2022/12/18 03:34:28;;;;;;;71.17;32.90;;;;;;;;;;5094740;28;20464;-73
2022/12/18 03:36:53;;;;;;;78.17;31.90;;;;;;;;;;5071125;28;20421;-74
2022/12/18 03:39:19;;;;;;;74.77;32.03;;;;;;;;;;5092654;28;20970;-74
2022/12/18 03:41:49;;;;;;;64.00;31.03;;;;;;;;;;5093823;28;20775;-73
2022/12/18 03:44:19;;;;;;;64.40;30.30;;;;;;;;;;5099743;28;20908;-73
2022/12/18 03:46:51;;;;;;;72.17;32.37;;;;;;;;;;5098850;28;20407;-73
2022/12/18 03:49:29;;;;;;;67.43;33.07;;;;;;;;;;5083379;28;20444;-74
2022/12/18 03:52:01;;;;;;;76.53;31.37;;;;;;;;;;5082355;28;20921;-73
2022/12/18 03:54:28;;;;;;;74.77;33.33;;;;;;;;;;5083663;28;20492;-73
2022/12/18 03:57:00;;;;;;;67.23;30.27;;;;;;;;;;5081247;28;20434;-73
2022/12/18 03:59:26;;;;;;;64.43;30.00;;;;;;;;;;5073174;28;20531;-73
2022/12/18 04:01:52;;;;;;;73.70;34.27;;;;;;;;;;5100464;28;20461;-73
2022/12/18 04:04:18;;;;;;;68.47;30.47;;;;;;;;;;5100097;28;20419;-74
2022/12/18 04:06:45;;;;;;;70.47;31.63;;;;;;;;;;5079316;28;20205;-73
2022/12/18 04:09:14;;;;;;;63.77;30.57;;;;;;;;;;5081955;28;20456;-74
2022/12/18 04:11:45;;;;;;;65.07;31.20;;;;;;;;;;5076870;28;20831;-73
2022/12/18 04:14:10;;;;;;;68.53;30.33;;;;;;;;;;5071682;28;20433;-73
2022/12/18 04:16:36;;;;;;;74.37;30.00;;;;;;;;;;5063935;28;20420;-74
2022/12/18 04:19:01;;;;;;;61.70;28.20;;;;;;;;;;5064468;28;20267;-74
2022/12/18 04:21:26;;;;;;;52.63;25.73;;;;;;;;;;5069898;28;20198;-74
2022/12/18 04:23:55;;;;;;;50.33;25.83;;;;;;;;;;5064141;28;20715;-73
2022/12/18 04:26:20;;;;;;;54.10;24.00;;;;;;;;;;5065655;28;20186;-74
2022/12/18 04:28:45;;;;;;;50.93;25.07;;;;;;;;;;5082008;28;20822;-74
2022/12/18 04:31:11;;;;;;;46.23;26.23;;;;;;;;;;5062370;28;20792;-73
2022/12/18 04:33:36;;;;;;;48.77;24.30;;;;;;;;;;5077895;28;20205;-74
2022/12/18 04:36:01;;;;;;;40.97;23.60;;;;;;;;;;5064067;28;20558;-74
2022/12/18 04:38:27;;;;;;;37.30;20.73;;;;;;;;;;5061049;28;20198;-73
2022/12/18 04:40:52;;;;;;;35.83;20.90;;;;;;;;;;5056379;28;20228;-73
2022/12/18 04:43:17;;;;;;;46.93;22.50;;;;;;;;;;5079203;28;20565;-73
2022/12/18 04:45:43;;;;;;;35.17;19.63;;;;;;;;;;5066768;28;20563;-73
2022/12/18 04:48:08;;;;;;;36.30;20.23;;;;;;;;;;5064160;28;20635;-74
2022/12/18 04:50:33;;;;;;;35.77;19.77;;;;;;;;;;5077165;28;20187;-74
2022/12/18 04:52:58;;;;;;;38.40;20.43;;;;;;;;;;5058820;28;20206;-74
2022/12/18 04:55:24;;;;;;;37.17;21.47;;;;;;;;;;5063995;28;20731;-74
2022/12/18 04:57:49;;;;;;;37.80;19.73;;;;;;;;;;5059888;28;20203;-74
2022/12/18 05:00:14;;;;;;;36.23;19.80;;;;;;;;;;5068063;28;20217;-73
2022/12/18 05:02:40;;;;;;;36.73;20.17;;;;;;;;;;5073710;28;20198;-74
2022/12/18 05:05:06;;;;;;;36.77;19.00;;;;;;;;;;5065028;28;20210;-73
2022/12/18 05:07:31;;;;;;;34.03;18.87;;;;;;;;;;5065162;28;20663;-73
2022/12/18 05:09:56;;;;;;;32.57;17.90;;;;;;;;;;5077753;28;20425;-73
2022/12/18 05:12:24;;;;;;;38.00;19.50;;;;;;;;;;5082115;28;20203;-74
2022/12/18 05:14:50;;;;;;;29.97;18.73;;;;;;;;;;5070394;28;20652;-73
2022/12/18 05:17:15;;;;;;;34.07;19.67;;;;;;;;;;5082911;28;20441;-73
2022/12/18 05:19:40;;;;;;;39.33;20.60;;;;;;;;;;5083714;28;20206;-74
2022/12/18 05:22:06;;;;;;;36.57;18.77;;;;;;;;;;5078090;28;20183;-74
2022/12/18 05:24:31;;;;;;;38.13;20.90;;;;;;;;;;5068472;28;20684;-73
2022/12/18 05:26:57;;;;;;;34.70;19.33;;;;;;;;;;5080294;28;20179;-73
2022/12/18 05:29:22;;;;;;;34.90;19.63;;;;;;;;;;5083860;28;20203;-73
2022/12/18 05:31:47;;;;;;;32.37;18.50;;;;;;;;;;5066504;28;20210;-74
2022/12/18 05:34:13;;;;;;;30.57;18.40;;;;;;;;;;5085854;28;20261;-73
2022/12/18 05:36:38;;;;;;;30.10;17.57;;;;;;;;;;5065572;28;20187;-73
2022/12/18 05:39:03;;;;;;;32.50;18.83;;;;;;;;;;5066983;28;20250;-74
2022/12/18 05:41:31;;;;;;;30.43;17.60;;;;;;;;;;5077752;28;20171;-74
2022/12/18 05:43:56;;;;;;;26.70;16.33;;;;;;;;;;5062198;28;20198;-74
2022/12/18 05:46:22;;;;;;;28.93;18.20;;;;;;;;;;5078215;28;20433;-74
2022/12/18 05:48:48;;;;;;;31.80;18.40;;;;;;;;;;5078029;28;20202;-73
2022/12/18 05:51:14;;;;;;;32.00;18.37;;;;;;;;;;5079037;28;20611;-73
2022/12/18 05:53:40;;;;;;;31.77;18.70;;;;;;;;;;5072893;28;20215;-74
2022/12/18 05:56:06;;;;;;;29.93;17.37;;;;;;;;;;5062511;28;20813;-74
2022/12/18 05:58:32;;;;;;;30.23;16.90;;;;;;;;;;5061867;28;21145;-74
2022/12/18 06:00:58;;;;;;;30.63;17.70;;;;;;;;;;5061466;28;20273;-74
2022/12/18 06:03:23;;;;;;;30.00;17.17;;;;;;;;;;5062445;28;20256;-74
2022/12/18 06:05:49;;;;;;;32.87;18.30;;;;;;;;;;5055455;28;20194;-73
2022/12/18 06:08:14;;;;;;;30.80;17.50;;;;;;;;;;5076550;28;20202;-73
2022/12/18 06:10:40;;;;;;;35.83;19.53;;;;;;;;;;5065686;28;20255;-74
2022/12/18 06:13:05;;;;;;;29.90;17.77;;;;;;;;;;5066293;28;20206;-74
2022/12/18 06:15:31;;;;;;;33.83;19.23;;;;;;;;;;5060641;28;20960;-74
2022/12/18 06:17:56;;;;;;;32.70;18.60;;;;;;;;;;5077390;28;20202;-73
2022/12/18 06:20:22;;;;;;;36.97;19.50;;;;;;;;;;5079322;28;20182;-73
2022/12/18 06:22:47;;;;;;;32.17;18.70;;;;;;;;;;5072330;28;20191;-73
2022/12/18 06:28:35;;;;;;;36.73;19.87;;;;;;;;;;5071742;27;1525244;-73
2022/12/18 06:35:00;;;;;;;32.40;18.67;;;;;;;;;;5095044;27;21125;-73
2022/12/18 06:50:44;;;;;;;31.90;19.17;;;;;;;;;;5420340;22;18712270;-73
2022/12/18 06:53:20;;;;;;;;;;;;;;;;;;;;;
2022/12/18 06:55:55;;;;;;;;;;;;;;;;;;;;;
2022/12/18 06:59:04;;;;;;;28.90;18.23;;;;;;;;;;5050963;27;1437516;-74
2022/12/18 07:01:52;;;;;;;25.63;18.02;;;;;;;;;;5088555;28;20430;-74
2022/12/18 07:04:22;;;;;;;28.55;20.08;;;;;;;;;;5085731;28;20953;-74
2022/12/18 07:06:57;;;;;;;31.03;20.40;;;;;;;;;;5084943;28;20432;-74
2022/12/18 07:09:53;;;;;;;;;;;;;;;;;;;;;
2022/12/18 07:12:37;;;;;;;;;;;;;;;;;;;;;
2022/12/18 07:15:03;;;;;;;28.60;19.88;;;;;;;;;;5087358;28;20412;-74
2022/12/18 07:21:02;;;;;;;;;;;;;;;;;;;;;
2022/12/18 07:26:26;;;;;;;25.53;16.20;;;;;;;;;;5079757;27;20531;-74
2022/12/18 07:29:05;;;;;;;;;;;;;;;;;;;;;
2022/12/18 07:36:09;;;;;;;25.50;16.17;;;;;;;;;;5071210;27;1341795;-74
2022/12/18 07:38:35;;;;;;;26.50;15.20;;;;;;;;;;5106739;28;20488;-74
2022/12/18 07:46:03;;;;;;;;;;;;;;;;;;;;;
2022/12/18 07:49:04;;;;;;;26.37;14.73;;;;;;;;;;4857743;27;6474962;-73
2022/12/18 07:51:51;;;;;;;21.92;15.98;;;;;;;;;;5100118;28;20498;-74
2022/12/18 08:08:59;;;;;;;19.42;13.20;;;;;;;;;;6098740;22;2858502;-74
2022/12/18 08:11:58;;;;;;;;;;;;;;;;;;;;;
2022/12/18 08:14:39;;;;;;;19.90;13.80;;;;;;;;;;6213174;23;20373;-74
2022/12/18 08:17:05;;;;;;;18.60;14.33;;;;;;;;;;6216280;23;20365;-74
2022/12/18 08:19:46;;;;;;;;;;;;;;;;;;;;;
2022/12/18 08:22:12;;;;;;;18.65;13.85;;;;;;;;;;6222468;23;20456;-75
2022/12/18 08:27:24;;;;;;;16.80;12.20;;;;;;;;;;4543208;27;15760229;-74
2022/12/18 08:30:08;;;;;;;;;;;;;;;;;;;;;
2022/12/18 08:32:49;;;;;;;;;;;;;;;;;;;;;
2022/12/18 08:35:20;;;;;;;17.35;13.15;;;;;;;;;;5074543;28;21067;-74
2022/12/18 08:37:58;;;;;;;;;;;;;;;;;;;;;
2022/12/18 08:40:57;;;;;;;;;;;;;;;;;;;;;
2022/12/18 08:45:58;;;;;;;16.93;11.93;;;;;;;;;;5081920;28;20451;-73
2022/12/18 08:48:24;;;;;;;17.43;11.83;;;;;;;;;;5063599;28;20436;-74
2022/12/18 08:50:56;;;;;;;20.30;11.90;;;;;;;;;;5061480;28;20174;-73
2022/12/18 08:53:21;;;;;;;18.20;11.70;;;;;;;;;;5083837;28;20244;-73
2022/12/18 08:55:54;;;;;;;17.70;11.17;;;;;;;;;;5073553;28;20460;-74
2022/12/18 08:58:19;;;;;;;16.58;12.80;;;;;;;;;;5063484;28;20413;-75
2022/12/18 09:00:45;;;;;;;18.00;10.57;;;;;;;;;;5074606;28;20193;-75
2022/12/18 09:03:14;;;;;;;14.43;9.90;;;;;;;;;;5062846;28;20186;-75
2022/12/18 09:05:39;;;;;;;16.30;10.37;;;;;;;;;;5060955;28;20189;-76
2022/12/18 09:08:04;;;;;;;16.90;10.47;;;;;;;;;;5059038;28;20452;-74
2022/12/18 09:10:30;;;;;;;15.93;11.20;;;;;;;;;;5069305;28;20179;-75
2022/12/18 09:12:56;;;;;;;18.57;11.50;;;;;;;;;;5062872;28;21106;-75
2022/12/18 09:15:21;;;;;;;15.00;10.13;;;;;;;;;;5082995;28;20618;-75
2022/12/18 09:17:47;;;;;;;16.40;10.20;;;;;;;;;;5064886;28;20453;-76
2022/12/18 09:20:13;;;;;;;16.60;10.10;;;;;;;;;;5081595;28;20607;-75
2022/12/18 09:22:38;;;;;;;15.53;10.07;;;;;;;;;;5062811;28;20451;-74
2022/12/18 09:25:03;;;;;;;14.43;9.53;;;;;;;;;;5091740;22;20232;-70
2022/12/18 09:27:29;;;;;;;14.87;9.80;;;;;;;;;;5066788;28;20175;-72
2022/12/18 09:29:54;;;;;;;13.47;9.07;;;;;;;;;;5065664;28;20286;-71
2022/12/18 09:32:19;;;;;;;14.00;9.17;;;;;;;;;;5076945;28;20175;-70
2022/12/18 09:34:45;;;;;;;13.33;8.97;;;;;;;;;;5078212;28;20182;-72
2022/12/18 09:37:10;;;;;;;15.20;8.57;;;;;;;;;;5077884;28;20652;-70
2022/12/18 09:39:35;;;;;;;12.20;8.30;;;;;;;;;;5052106;28;20209;-69
2022/12/18 09:42:01;;;;;;;10.40;7.70;;;;;;;;;;5054857;28;20183;-70
2022/12/18 09:44:32;;;;;;;14.87;8.13;;;;;;;;;;5052013;28;20651;-70
2022/12/18 09:47:13;;;;;;;11.50;8.40;;;;;;;;;;5050667;28;20186;-71
2022/12/18 09:49:46;;;;;;;13.97;7.50;;;;;;;;;;5048915;28;20457;-69
2022/12/18 09:52:14;;;;;;;13.73;8.03;;;;;;;;;;5054975;28;20430;-71
2022/12/18 09:54:40;;;;;;;10.57;7.30;;;;;;;;;;5052117;28;20421;-70
2022/12/18 09:57:06;;;;;;;10.63;6.83;;;;;;;;;;5069081;28;20472;-70
2022/12/18 09:59:36;;;;;;;9.43;7.13;;;;;;;;;;5046138;28;20456;-72
2022/12/18 10:02:15;;;;;;;10.47;8.10;;;;;;;;;;5068922;28;20183;-72
2022/12/18 10:04:40;;;;;;;12.53;7.67;;;;;;;;;;5051586;28;20486;-70
2022/12/18 10:07:13;;;;;;;10.40;7.83;;;;;;;;;;5065474;28;21119;-73
2022/12/18 10:09:57;;;;;;;11.70;7.67;;;;;;;;;;5069494;28;20198;-71
2022/12/18 10:12:44;;;;;;;10.97;7.17;;;;;;;;;;5049671;28;20441;-70
2022/12/18 10:15:23;;;;;;;10.23;7.80;;;;;;;;;;5066686;28;20437;-70
2022/12/18 10:17:54;;;;;;;9.33;6.70;;;;;;;;;;5065008;28;20441;-70
2022/12/18 10:20:38;;;;;;;9.73;7.40;;;;;;;;;;5051053;28;20418;-72
2022/12/18 10:23:06;;;;;;;10.20;7.30;;;;;;;;;;5065451;28;20782;-71
2022/12/18 10:25:40;;;;;;;10.20;7.17;;;;;;;;;;5053664;28;20444;-70
2022/12/18 10:28:11;;;;;;;8.43;6.00;;;;;;;;;;5066545;28;20594;-71
2022/12/18 10:30:38;;;;;;;9.97;6.63;;;;;;;;;;5051761;28;21988;-71
2022/12/18 10:33:03;;;;;;;11.87;6.47;;;;;;;;;;5054372;28;20448;-71
2022/12/18 10:35:28;;;;;;;8.73;6.20;;;;;;;;;;5066668;28;20490;-71
2022/12/18 10:38:01;;;;;;;8.00;6.20;;;;;;;;;;5062592;28;20282;-71
2022/12/18 10:40:27;;;;;;;9.47;7.03;;;;;;;;;;5056663;28;20174;-71
2022/12/18 10:43:06;;;;;;;8.67;6.33;;;;;;;;;;5067170;28;20484;-72
2022/12/18 10:45:31;;;;;;;7.90;6.03;;;;;;;;;;5061247;28;20175;-71
2022/12/18 10:47:57;;;;;;;8.40;5.90;;;;;;;;;;5052693;28;20454;-70
2022/12/18 10:50:31;;;;;;;7.83;6.37;;;;;;;;;;5062982;28;20183;-71
2022/12/18 10:52:57;;;;;;;6.43;5.47;;;;;;;;;;5045245;28;20434;-72
2022/12/18 10:55:25;;;;;;;8.93;6.40;;;;;;;;;;5063077;28;20823;-70
2022/12/18 10:57:50;;;;;;;6.90;5.50;;;;;;;;;;5052021;28;20440;-71
2022/12/18 11:00:27;;;;;;;7.63;5.87;;;;;;;;;;5049403;28;20431;-69
2022/12/18 11:02:53;;;;;;;9.60;6.47;;;;;;;;;;5046998;28;20175;-70
2022/12/18 11:05:31;;;;;;;8.70;6.30;;;;;;;;;;5066987;28;20461;-69
2022/12/18 11:07:58;;;;;;;15.50;6.23;;;;;;;;;;5050190;28;20204;-72
2022/12/18 11:10:46;;;;;;;9.23;6.67;;;;;;;;;;5063438;28;20434;-70
2022/12/18 11:13:22;;;;;;;6.90;5.60;;;;;;;;;;5048050;28;20441;-71
2022/12/18 11:15:47;;;;;;;8.63;6.00;;;;;;;;;;5051813;28;20453;-71
2022/12/18 11:18:24;;;;;;;9.80;6.63;;;;;;;;;;5051238;28;20510;-72
2022/12/18 11:20:51;;;;;;;8.90;6.50;;;;;;;;;;5052945;28;20182;-71
2022/12/18 11:23:18;;;;;;;8.60;5.90;;;;;;;;;;5064992;28;20462;-70
2022/12/18 11:25:54;;;;;;;7.67;6.10;;;;;;;;;;5067210;28;20459;-69
2022/12/18 11:28:25;;;;;;;9.90;6.33;;;;;;;;;;5048967;28;20455;-69
2022/12/18 11:31:09;;;;;;;11.50;6.77;;;;;;;;;;5066154;28;20508;-70
2022/12/18 11:33:41;;;;;;;9.33;7.07;;;;;;;;;;5067790;28;20456;-69
2022/12/18 11:36:07;;;;;;;8.40;6.20;;;;;;;;;;5047371;28;20453;-72
2022/12/18 11:38:35;;;;;;;9.70;6.20;;;;;;;;;;5049567;28;20484;-71
2022/12/18 11:41:03;;;;;;;8.53;6.20;;;;;;;;;;5050337;28;20425;-71
2022/12/18 11:43:35;;;;;;;10.07;6.50;;;;;;;;;;5068679;28;20425;-71
2022/12/18 11:46:04;;;;;;;9.20;6.67;;;;;;;;;;5064416;28;20930;-70
2022/12/18 11:48:34;;;;;;;8.40;6.07;;;;;;;;;;5047819;28;20513;-72
2022/12/18 11:51:02;;;;;;;6.97;5.63;;;;;;;;;;5048959;28;21033;-72
2022/12/18 11:53:27;;;;;;;7.70;5.90;;;;;;;;;;5061841;28;20430;-72
2022/12/18 11:56:02;;;;;;;9.37;6.67;;;;;;;;;;5046841;28;20448;-70
2022/12/18 11:58:34;;;;;;;8.70;7.10;;;;;;;;;;5061169;28;20910;-70
2022/12/18 12:01:02;;;;;;;9.00;6.27;;;;;;;;;;5058659;28;20517;-70
2022/12/18 12:03:41;;;;;;;9.63;6.70;;;;;;;;;;5046217;28;20428;-69
2022/12/18 12:06:06;;;;;;;7.17;6.20;;;;;;;;;;5062779;28;20401;-70
2022/12/18 12:08:50;;;;;;;10.37;6.93;;;;;;;;;;5046592;28;20448;-69
2022/12/18 12:11:33;;;;;;;9.73;6.57;;;;;;;;;;5063924;28;20186;-69
2022/12/18 12:14:10;;;;;;;9.27;6.57;;;;;;;;;;5045178;28;20443;-69
2022/12/18 12:16:41;;;;;;;7.77;6.37;;;;;;;;;;5049999;28;20465;-69
2022/12/18 12:19:07;;;;;;;7.60;5.70;;;;;;;;;;5051418;28;20536;-69
2022/12/18 12:21:32;;;;;;;7.50;6.47;;;;;;;;;;5045669;28;20449;-69
2022/12/18 12:24:09;;;;;;;8.70;6.70;;;;;;;;;;5045593;28;20698;-69
2022/12/18 12:26:54;;;;;;;6.10;5.00;;;;;;;;;;5045355;28;20215;-71
2022/12/18 12:29:22;;;;;;;8.53;6.10;;;;;;;;;;5063958;28;20430;-69
2022/12/18 12:31:47;;;;;;;6.87;5.07;;;;;;;;;;5059045;28;20520;-69
2022/12/18 12:34:24;;;;;;;8.07;6.47;;;;;;;;;;5045415;28;21202;-69
2022/12/18 12:37:08;;;;;;;9.90;6.03;;;;;;;;;;5064849;28;20210;-70
2022/12/18 12:39:37;;;;;;;7.27;5.20;;;;;;;;;;5062555;28;20671;-69
2022/12/18 12:44:55;;;;;;;8.43;5.57;;;;;;;;;;5059321;28;20424;-71
2022/12/18 12:47:23;;;;;;;8.80;6.27;;;;;;;;;;5062752;28;20425;-70
2022/12/18 12:49:49;;;;;;;10.17;6.17;;;;;;;;;;5062266;28;20451;-71
2022/12/18 12:52:24;;;;;;;8.07;6.00;;;;;;;;;;5048959;28;20426;-69
2022/12/18 12:54:50;;;;;;;10.60;6.50;;;;;;;;;;5046922;28;20240;-69
2022/12/18 12:57:25;;;;;;;9.50;5.50;;;;;;;;;;5063561;28;20460;-69
2022/12/18 12:59:57;;;;;;;8.97;6.80;;;;;;;;;;5059663;28;21385;-69
2022/12/18 13:02:29;;;;;;;8.00;6.30;;;;;;;;;;5062385;28;20425;-69
2022/12/18 13:04:54;;;;;;;8.90;6.27;;;;;;;;;;5061500;28;20799;-69
2022/12/18 13:07:35;;;;;;;8.20;6.40;;;;;;;;;;5058842;28;20429;-69
2022/12/18 13:10:13;;;;;;;9.90;6.40;;;;;;;;;;5053046;28;20271;-69
2022/12/18 13:13:09;;;;;;;7.70;5.77;;;;;;;;;;5050236;28;20797;-69
2022/12/18 13:15:47;;;;;;;8.00;6.37;;;;;;;;;;5045634;28;20456;-69
2022/12/18 13:18:12;;;;;;;8.43;6.07;;;;;;;;;;5051679;28;20524;-69
2022/12/18 13:20:38;;;;;;;9.30;5.70;;;;;;;;;;5060835;28;20435;-69
2022/12/18 13:23:22;;;;;;;8.50;6.77;;;;;;;;;;5047018;28;20175;-69
2022/12/18 13:25:47;;;;;;;7.37;5.80;;;;;;;;;;5050487;28;20179;-68
2022/12/18 13:28:16;;;;;;;7.67;5.97;;;;;;;;;;5044802;28;20478;-69
2022/12/18 13:30:41;;;;;;;9.30;6.90;;;;;;;;;;5054922;28;20398;-69
2022/12/18 13:33:16;;;;;;;8.13;6.30;;;;;;;;;;5045621;28;20964;-69
2022/12/18 13:35:41;;;;;;;9.07;7.20;;;;;;;;;;5041339;28;20301;-70
2022/12/18 13:38:27;;;;;;;9.90;6.37;;;;;;;;;;5061742;28;20446;-69
2022/12/18 13:40:56;;;;;;;7.83;6.40;;;;;;;;;;5048472;28;20207;-69
2022/12/18 13:43:21;;;;;;;11.70;6.70;;;;;;;;;;5065766;28;20484;-70
2022/12/18 13:45:47;;;;;;;8.33;6.43;;;;;;;;;;5061357;28;20434;-68
2022/12/18 13:48:15;;;;;;;9.93;6.13;;;;;;;;;;5062535;28;20200;-69
2022/12/18 13:50:40;;;;;;;8.73;6.10;;;;;;;;;;5056238;28;20198;-68
2022/12/18 13:53:06;;;;;;;13.70;7.13;;;;;;;;;;5052196;28;20642;-70
2022/12/18 13:55:31;;;;;;;8.07;6.60;;;;;;;;;;5047844;28;20288;-69
2022/12/18 13:58:04;;;;;;;8.70;5.50;;;;;;;;;;5047104;28;20781;-69
2022/12/18 14:00:32;;;;;;;9.43;6.37;;;;;;;;;;5065209;28;20179;-69
2022/12/18 14:02:58;;;;;;;8.80;6.53;;;;;;;;;;5063248;28;20413;-69
2022/12/18 14:05:30;;;;;;;7.60;5.87;;;;;;;;;;5067533;28;20441;-69
2022/12/18 14:08:00;;;;;;;9.43;6.80;;;;;;;;;;5054524;28;20222;-69
2022/12/18 14:10:25;;;;;;;8.97;6.53;;;;;;;;;;5054259;28;20436;-69
2022/12/18 14:12:57;;;;;;;9.40;6.77;;;;;;;;;;5060513;28;20425;-71
2022/12/18 14:15:28;;;;;;;8.47;6.43;;;;;;;;;;5067250;28;20202;-69
2022/12/18 14:18:22;;;;;;;12.73;6.80;;;;;;;;;;5064000;28;21042;-71
2022/12/18 14:20:49;;;;;;;8.77;6.70;;;;;;;;;;5048122;28;20460;-69
2022/12/18 14:23:28;;;;;;;8.67;6.37;;;;;;;;;;5067513;28;20865;-68
2022/12/18 14:25:53;;;;;;;7.27;6.07;;;;;;;;;;5062490;28;20426;-69
2022/12/18 14:28:18;;;;;;;16.23;8.67;;;;;;;;;;5067342;28;20490;-70
2022/12/18 14:30:45;;;;;;;9.10;7.67;;;;;;;;;;5066249;28;20180;-69
2022/12/18 14:33:18;;;;;;;10.37;8.43;;;;;;;;;;5063740;28;20198;-68
2022/12/18 14:35:58;;;;;;;10.53;7.00;;;;;;;;;;5067977;28;20456;-69
2022/12/18 14:38:34;;;;;;;12.73;8.83;;;;;;;;;;5065438;28;20520;-69
2022/12/18 14:41:01;;;;;;;8.60;6.80;;;;;;;;;;5052033;28;20488;-69
2022/12/18 14:43:27;;;;;;;8.40;6.33;;;;;;;;;;5067421;28;20436;-69
2022/12/18 14:45:53;;;;;;;7.60;6.17;;;;;;;;;;5062106;28;20809;-71
2022/12/18 14:48:20;;;;;;;8.90;5.63;;;;;;;;;;5050815;28;20435;-71
2022/12/18 14:50:53;;;;;;;12.90;9.00;;;;;;;;;;5063954;28;20194;-69
2022/12/18 14:53:21;;;;;;;9.17;6.87;;;;;;;;;;5052688;28;20781;-69
2022/12/18 14:55:47;;;;;;;11.80;8.27;;;;;;;;;;5066554;28;20453;-69
2022/12/18 14:58:14;;;;;;;10.20;7.50;;;;;;;;;;5066971;28;21438;-69
2022/12/18 15:00:42;;;;;;;8.27;7.00;;;;;;;;;;5064096;28;20437;-69
2022/12/18 15:03:08;;;;;;;8.80;6.93;;;;;;;;;;5067322;28;20416;-69
2022/12/18 15:05:34;;;;;;;8.23;6.93;;;;;;;;;;5045183;28;20434;-69
2022/12/18 15:08:00;;;;;;;8.10;5.17;;;;;;;;;;5064015;28;20529;-69
2022/12/18 15:10:29;;;;;;;8.47;6.63;;;;;;;;;;5051530;28;21073;-69
2022/12/18 15:12:59;;;;;;;7.00;5.40;;;;;;;;;;5065421;28;20501;-69
2022/12/18 15:15:35;;;;;;;5.67;5.07;;;;;;;;;;5061188;28;20465;-69
2022/12/18 15:18:12;;;;;;;7.20;6.00;;;;;;;;;;5063614;28;20976;-68
2022/12/18 15:20:42;;;;;;;6.43;5.60;;;;;;;;;;5066096;28;20425;-68
2022/12/18 15:23:33;;;;;;;7.07;5.20;;;;;;;;;;5063163;28;20425;-71
2022/12/18 15:26:06;;;;;;;7.03;5.43;;;;;;;;;;5056776;28;20456;-69
2022/12/18 15:28:36;;;;;;;8.77;6.20;;;;;;;;;;5057985;22;20495;-73
2022/12/18 15:31:11;;;;;;;8.40;6.33;;;;;;;;;;5021198;28;20424;-72
2022/12/18 15:33:37;;;;;;;6.20;5.60;;;;;;;;;;5040598;28;20820;-72
2022/12/18 15:36:04;;;;;;;7.20;5.30;;;;;;;;;;5014905;28;20472;-72
2022/12/18 15:38:29;;;;;;;7.20;4.80;;;;;;;;;;5025175;28;20446;-72
2022/12/18 15:40:55;;;;;;;6.90;4.97;;;;;;;;;;5034286;28;20438;-72
2022/12/18 15:43:36;;;;;;;6.83;5.70;;;;;;;;;;5020494;28;20176;-72
2022/12/18 15:46:01;;;;;;;7.00;4.57;;;;;;;;;;5036411;28;20171;-72
2022/12/18 15:48:27;;;;;;;9.63;5.50;;;;;;;;;;5020847;28;20472;-73
2022/12/18 15:50:53;;;;;;;5.50;4.37;;;;;;;;;;5020367;28;20677;-72
2022/12/18 15:53:19;;;;;;;6.60;4.97;;;;;;;;;;5031497;28;20310;-72
2022/12/18 15:58:28;;;;;;;6.37;4.80;;;;;;;;;;5038775;28;20695;-72
2022/12/18 16:00:55;;;;;;;6.60;5.70;;;;;;;;;;5018276;28;20435;-72
2022/12/18 16:03:20;;;;;;;6.33;4.43;;;;;;;;;;5039750;28;20208;-72
2022/12/18 16:05:45;;;;;;;5.03;4.40;;;;;;;;;;5024682;28;20481;-72
2022/12/18 16:08:11;;;;;;;8.00;5.43;;;;;;;;;;5035753;28;20204;-72
2022/12/18 16:10:36;;;;;;;7.10;4.80;;;;;;;;;;5037447;28;20187;-72
2022/12/18 16:13:01;;;;;;;6.83;5.30;;;;;;;;;;5040902;28;20197;-73
2022/12/18 16:15:27;;;;;;;6.73;4.50;;;;;;;;;;5026537;28;20200;-72
2022/12/18 16:17:52;;;;;;;7.03;4.90;;;;;;;;;;5017408;28;20730;-73
2022/12/18 16:20:20;;;;;;;7.10;4.80;;;;;;;;;;5015346;28;20184;-71
2022/12/18 16:22:46;;;;;;;6.53;4.03;;;;;;;;;;5010508;28;20306;-72
2022/12/18 16:25:17;;;;;;;8.23;4.60;;;;;;;;;;5035996;28;20573;-72
2022/12/18 16:27:42;;;;;;;5.87;4.60;;;;;;;;;;5020009;28;20184;-72
2022/12/18 16:30:12;;;;;;;5.97;4.70;;;;;;;;;;5025614;28;20407;-72
2022/12/18 16:32:37;;;;;;;5.80;4.40;;;;;;;;;;5015590;28;20188;-71
2022/12/18 16:35:05;;;;;;;5.80;4.57;;;;;;;;;;5003595;28;20445;-73
2022/12/18 16:37:30;;;;;;;5.63;5.00;;;;;;;;;;5014685;28;20211;-71
2022/12/18 16:39:55;;;;;;;7.60;4.87;;;;;;;;;;5022960;28;20450;-72
2022/12/18 16:42:20;;;;;;;6.13;4.10;;;;;;;;;;5016878;28;20742;-73
2022/12/18 16:44:46;;;;;;;6.87;5.20;;;;;;;;;;5019536;28;20189;-72
2022/12/18 16:47:12;;;;;;;7.43;4.87;;;;;;;;;;5020401;28;20180;-71
2022/12/18 16:49:38;;;;;;;7.93;5.07;;;;;;;;;;5040673;28;20492;-72
2022/12/18 16:52:07;;;;;;;7.50;5.40;;;;;;;;;;5040475;28;20254;-72
2022/12/18 16:54:33;;;;;;;5.13;4.13;;;;;;;;;;5023732;28;20183;-73
2022/12/18 16:56:59;;;;;;;5.47;4.27;;;;;;;;;;5040287;28;20466;-72
2022/12/18 16:59:25;;;;;;;6.13;4.03;;;;;;;;;;5040532;28;20435;-72
2022/12/18 17:01:51;;;;;;;5.00;4.23;;;;;;;;;;5018521;28;20184;-72
2022/12/18 17:04:16;;;;;;;6.27;4.10;;;;;;;;;;5026521;28;20423;-71
2022/12/18 17:06:43;;;;;;;5.37;4.53;;;;;;;;;;5028075;28;20303;-72
2022/12/18 17:09:10;;;;;;;6.00;4.40;;;;;;;;;;5029318;28;20695;-72